NCAR-RAP Real-Time Weather Data

Output produced by METARs form (19 June 2019  11:22 UTC)
found at http://weather.rap.ucar.edu/surface/
 
KRST 191054Z 04004KT 10SM CLR 13/11 A2985 RMK AO2 SLP106 T01280111
KRST 190954Z AUTO 05004KT 10SM CLR 13/11 A2985 RMK AO2 SLP107 T01330106
KRST 190854Z AUTO 04004KT 10SM CLR 14/11 A2986 RMK AO2 SLP109 T01390111 58013
KRST 190754Z AUTO 01003KT 10SM CLR 15/12 A2988 RMK AO2 SLP114 T01500117
KRST 190654Z AUTO 02003KT 10SM CLR 16/12 A2989 RMK AO2 SLP118 T01560117
KRST 190554Z AUTO 00000KT 10SM CLR 17/11 A2990 RMK AO2 SLP122 T01670111 10206 20161 402280161 50001
KRST 190454Z AUTO 36003KT 10SM CLR 17/12 A2991 RMK AO2 SLP126 T01670117
KRST 190354Z 00000KT 10SM CLR 18/11 A2991 RMK AO2 SLP124 T01780111
KRST 190254Z 36003KT 10SM CLR 18/12 A2990 RMK AO2 SLP121 T01780117 55000
KRST 190154Z 00000KT 10SM CLR 19/12 A2990 RMK AO2 SLP120 T01890122
KRST 190054Z 34003KT 10SM CLR 20/12 A2990 RMK AO2 SLP121 T02000117
KRST 182354Z 35005KT 10SM CLR 21/12 A2990 RMK AO2 SLP122 T02060117 10228 20206 56010
KRST 182254Z 34007KT 10SM FEW047 SCT055 22/12 A2991 RMK AO2 SLP124 T02170122
KRST 182154Z 35003KT 10SM FEW050 22/11 A2992 RMK AO2 SLP128 T02220111
KRST 182054Z 35006KT 10SM BKN048 22/12 A2993 RMK AO2 SLP131 T02220122 56011
KRST 181954Z AUTO 30008KT 10SM SCT050 23/12 A2994 RMK AO2 SLP135 T02280122
KRST 181854Z 27006KT 10SM BKN046 22/12 A2995 RMK AO2 SLP139 T02170117
KRST 181754Z 30008KT 10SM BKN042 21/12 A2996 RMK AO2 SLP143 T02110122 10222 20161 58008
KRST 181654Z 10SM BKN034 BKN042 21/13 A2998 RMK AO2 SLP147 T02110128
KRST 181554Z 30004KT 10SM CLR 21/13 A2998 RMK AO2 SLP149 T02110128
KRST 181454Z 32004KT 10SM SCT110 19/13 A2999 RMK AO2 SLP152 T01940128 50003